Time;durP1;ratioP1;P1;durP2;ratioP2;P2;SDS_P1;SDS_P2;PMS_P1;PMS_P2;Temp;Humidity;BMP_temperature;BMP_pressure;BME280_temperature;BME280_humidity;BME280_pressure;Samples;Min_cycle;Max_cycle;Signal;HPM_P1;HPM_P2
2022/07/26 00:00:47;;;;;;;16.40;3.97;;;17.70;99.90;;;;;;5054524;28;20504;-75
2022/07/26 00:03:14;;;;;;;12.50;4.25;;;17.70;99.90;;;;;;5054028;28;20056;-74
2022/07/26 00:05:41;;;;;;;11.98;3.70;;;17.80;99.90;;;;;;5053483;28;20056;-75
2022/07/26 00:08:11;;;;;;;15.13;3.13;;;17.80;99.90;;;;;;5053799;28;20052;-74
2022/07/26 00:10:39;;;;;;;11.63;3.42;;;17.80;99.90;;;;;;5052611;28;20076;-74
2022/07/26 00:13:06;;;;;;;15.48;3.78;;;17.90;99.90;;;;;;5054945;28;20053;-74
2022/07/26 00:15:35;;;;;;;13.13;3.42;;;17.90;99.90;;;;;;5054250;28;20521;-75
2022/07/26 00:18:02;;;;;;;12.90;3.60;;;17.90;99.90;;;;;;5054513;28;20067;-74
2022/07/26 00:20:29;;;;;;;10.90;3.80;;;17.90;99.90;;;;;;5053378;28;20049;-75
2022/07/26 00:22:56;;;;;;;12.02;3.50;;;17.90;99.90;;;;;;5053260;28;20060;-75
2022/07/26 00:25:23;;;;;;;14.68;4.03;;;17.90;99.90;;;;;;5053239;28;20179;-75
2022/07/26 00:27:50;;;;;;;11.77;3.60;;;17.90;99.90;;;;;;5053351;28;20061;-75
2022/07/26 00:30:17;;;;;;;16.00;3.58;;;17.90;99.90;;;;;;5053828;28;20417;-75
2022/07/26 00:32:45;;;;;;;11.57;3.40;;;17.90;99.90;;;;;;5052902;28;20081;-74
2022/07/26 00:35:12;;;;;;;11.65;3.70;;;17.90;99.90;;;;;;5052990;28;20045;-74
2022/07/26 00:37:40;;;;;;;11.50;2.88;;;17.90;99.90;;;;;;5053583;28;20501;-74
2022/07/26 00:40:08;;;;;;;11.93;3.88;;;17.90;99.90;;;;;;5054008;28;20095;-74
2022/07/26 00:42:35;;;;;;;10.45;4.03;;;17.90;99.90;;;;;;5052954;28;20057;-74
2022/07/26 00:45:03;;;;;;;9.57;3.40;;;17.80;99.90;;;;;;5068634;28;20084;-74
2022/07/26 00:47:30;;;;;;;9.40;2.75;;;17.90;99.90;;;;;;5053047;28;20497;-75
2022/07/26 00:49:58;;;;;;;16.67;4.38;;;17.90;99.90;;;;;;5053978;28;20053;-74
2022/07/26 00:52:25;;;;;;;11.27;3.97;;;17.90;99.90;;;;;;5051798;28;20489;-75
2022/07/26 00:54:53;;;;;;;5.95;3.10;;;18.00;99.90;;;;;;5052737;28;20052;-75
2022/07/26 00:57:21;;;;;;;13.25;3.38;;;18.00;99.90;;;;;;5052548;28;20136;-75
2022/07/26 00:59:49;;;;;;;10.20;3.17;;;18.00;99.90;;;;;;5051913;28;20061;-74
2022/07/26 01:02:16;;;;;;;12.68;3.10;;;18.10;99.90;;;;;;5052198;28;20045;-75
2022/07/26 01:04:44;;;;;;;8.45;2.67;;;18.10;99.90;;;;;;5053357;28;20107;-74
2022/07/26 01:07:13;;;;;;;6.47;2.67;;;18.10;99.90;;;;;;5051534;28;20049;-75
2022/07/26 01:09:40;;;;;;;9.40;3.50;;;18.10;99.90;;;;;;5052820;28;20057;-76
2022/07/26 01:12:08;;;;;;;9.80;3.35;;;18.10;99.90;;;;;;5051905;28;20053;-75
2022/07/26 01:14:35;;;;;;;8.73;2.70;;;18.10;99.90;;;;;;5053794;28;20060;-75
2022/07/26 01:17:02;;;;;;;13.88;4.07;;;18.10;99.90;;;;;;5053777;28;20049;-76
2022/07/26 01:19:29;;;;;;;7.53;2.80;;;18.00;99.90;;;;;;5053255;28;20045;-76
2022/07/26 01:21:57;;;;;;;4.68;2.30;;;18.00;99.90;;;;;;5053671;28;20049;-76
2022/07/26 01:24:24;;;;;;;9.73;2.83;;;18.10;99.90;;;;;;5057242;28;20470;-75
2022/07/26 01:26:51;;;;;;;6.68;2.67;;;18.00;99.90;;;;;;5054926;28;20049;-75
2022/07/26 01:29:18;;;;;;;7.20;2.92;;;18.00;99.90;;;;;;5052591;28;20049;-75
2022/07/26 01:31:44;;;;;;;6.70;2.70;;;18.00;99.90;;;;;;5051995;28;20053;-76
2022/07/26 01:34:11;;;;;;;8.02;2.63;;;18.00;99.90;;;;;;5050438;28;20053;-76
2022/07/26 01:36:38;;;;;;;6.30;2.28;;;18.00;99.90;;;;;;5053431;28;20118;-76
2022/07/26 01:39:07;;;;;;;3.78;2.22;;;18.00;99.90;;;;;;5053553;28;20052;-75
2022/07/26 01:41:34;;;;;;;10.55;2.90;;;18.00;99.90;;;;;;5052256;28;20044;-75
2022/07/26 01:44:01;;;;;;;4.93;2.33;;;18.00;99.90;;;;;;5052496;28;20048;-75
2022/07/26 01:46:28;;;;;;;5.43;2.55;;;18.00;99.90;;;;;;5051995;28;20052;-76
2022/07/26 01:48:54;;;;;;;6.05;3.22;;;18.00;99.90;;;;;;5051706;28;20520;-76
2022/07/26 01:51:21;;;;;;;6.43;2.42;;;18.00;99.90;;;;;;5052360;28;20053;-75
2022/07/26 01:53:48;;;;;;;5.13;2.70;;;18.00;99.90;;;;;;5053378;28;20049;-76
2022/07/26 01:56:16;;;;;;;9.45;2.65;;;18.00;99.90;;;;;;5059397;28;20053;-74
2022/07/26 01:58:43;;;;;;;5.78;2.63;;;18.00;99.90;;;;;;5074112;28;20052;-73
2022/07/26 02:01:11;;;;;;;7.03;3.00;;;18.00;99.90;;;;;;5071177;28;20053;-75
2022/07/26 02:03:38;;;;;;;5.53;2.55;;;17.80;99.90;;;;;;5051684;28;20135;-75
2022/07/26 02:06:06;;;;;;;4.78;2.67;;;17.90;99.90;;;;;;5052767;28;20048;-75
2022/07/26 02:08:33;;;;;;;5.18;2.70;;;17.90;99.90;;;;;;5051299;28;20456;-76
2022/07/26 02:11:02;;;;;;;5.70;2.95;;;17.90;99.90;;;;;;5051436;28;20102;-74
2022/07/26 02:13:33;;;;;;;5.97;2.67;;;17.90;99.90;;;;;;5053135;28;20072;-74
2022/07/26 02:16:00;;;;;;;8.02;2.55;;;17.90;99.90;;;;;;5052257;28;20049;-74
2022/07/26 02:18:28;;;;;;;7.80;2.67;;;17.90;99.90;;;;;;5053002;28;20045;-75
2022/07/26 02:20:56;;;;;;;8.77;3.15;;;17.90;99.90;;;;;;5052476;28;20053;-73
2022/07/26 02:23:24;;;;;;;6.85;3.45;;;17.90;99.90;;;;;;5054515;28;20052;-74
2022/07/26 02:25:52;;;;;;;10.55;4.00;;;17.90;99.90;;;;;;5055650;28;20059;-74
2022/07/26 02:28:19;;;;;;;12.18;3.15;;;17.90;99.90;;;;;;5057046;28;20071;-74
2022/07/26 02:30:48;;;;;;;9.13;4.00;;;17.80;99.90;;;;;;5055942;28;20110;-74
2022/07/26 02:33:15;;;;;;;7.75;2.60;;;17.80;99.90;;;;;;5056743;28;20493;-75
2022/07/26 02:35:43;;;;;;;6.28;2.85;;;17.80;99.90;;;;;;5056575;28;20497;-74
2022/07/26 02:38:11;;;;;;;5.15;2.22;;;17.70;99.90;;;;;;5054697;28;20052;-74
2022/07/26 02:40:39;;;;;;;5.93;2.47;;;17.60;99.90;;;;;;5055362;28;20103;-74
2022/07/26 02:43:08;;;;;;;5.38;2.00;;;17.50;99.90;;;;;;5055407;28;20431;-74
2022/07/26 02:45:35;;;;;;;6.38;2.15;;;17.50;99.90;;;;;;5054649;28;20053;-74
2022/07/26 02:48:04;;;;;;;7.95;2.65;;;17.40;99.90;;;;;;5055233;28;20052;-74
2022/07/26 02:50:31;;;;;;;6.43;2.15;;;17.30;99.90;;;;;;5054927;28;20049;-73
2022/07/26 02:52:58;;;;;;;6.57;2.40;;;17.30;99.90;;;;;;5055111;28;20107;-73
2022/07/26 02:55:26;;;;;;;5.22;2.13;;;17.30;99.90;;;;;;5056617;28;20061;-74
2022/07/26 02:57:53;;;;;;;8.27;2.88;;;17.20;99.90;;;;;;5055537;28;20482;-73
2022/07/26 03:00:22;;;;;;;8.10;2.50;;;17.20;99.90;;;;;;5056092;28;20048;-74
2022/07/26 03:02:50;;;;;;;15.65;2.67;;;17.20;99.90;;;;;;5054692;28;20417;-73
2022/07/26 03:05:18;;;;;;;6.40;2.40;;;17.20;99.90;;;;;;5055491;28;20057;-74
2022/07/26 03:07:46;;;;;;;7.65;2.63;;;17.10;99.90;;;;;;5055918;28;20049;-74
2022/07/26 03:10:12;;;;;;;9.15;2.97;;;17.10;99.90;;;;;;5055640;28;20136;-74
2022/07/26 03:12:39;;;;;;;8.00;2.47;;;17.20;99.90;;;;;;5055225;28;20041;-75
2022/07/26 03:15:07;;;;;;;6.53;2.35;;;17.10;99.90;;;;;;5055060;28;20106;-74
2022/07/26 03:17:34;;;;;;;5.55;2.35;;;17.20;99.90;;;;;;5054529;28;20057;-74
2022/07/26 03:20:02;;;;;;;8.63;2.33;;;17.20;99.90;;;;;;5054124;28;20485;-74
2022/07/26 03:22:30;;;;;;;10.70;2.72;;;17.20;99.90;;;;;;5055931;28;20044;-75
2022/07/26 03:24:57;;;;;;;9.65;2.55;;;17.20;99.90;;;;;;5055111;28;20053;-75
2022/07/26 03:27:24;;;;;;;6.30;1.90;;;17.20;99.90;;;;;;5055701;28;20414;-75
2022/07/26 03:29:51;;;;;;;7.72;2.40;;;17.20;99.90;;;;;;5055991;28;20111;-75
2022/07/26 03:32:18;;;;;;;4.85;1.98;;;17.20;99.90;;;;;;5060908;28;20099;-75
2022/07/26 03:34:45;;;;;;;6.85;2.25;;;17.10;99.90;;;;;;5063548;28;20064;-75
2022/07/26 03:37:11;;;;;;;8.52;2.63;;;17.20;99.90;;;;;;5054363;28;20053;-75
2022/07/26 03:39:40;;;;;;;6.60;1.80;;;17.20;99.90;;;;;;5054687;28;20076;-75
2022/07/26 03:42:07;;;;;;;5.10;1.60;;;17.20;99.90;;;;;;5054152;28;20053;-76
2022/07/26 03:44:34;;;;;;;6.43;1.58;;;17.10;99.90;;;;;;5054470;28;20523;-75
2022/07/26 03:47:01;;;;;;;8.18;1.90;;;17.10;99.90;;;;;;5053632;28;20106;-75
2022/07/26 03:49:28;;;;;;;8.80;1.80;;;17.10;99.90;;;;;;5055473;28;20059;-75
2022/07/26 03:51:55;;;;;;;6.93;1.42;;;17.10;99.90;;;;;;5043558;28;20084;-74
2022/07/26 03:54:22;;;;;;;6.00;1.52;;;17.10;99.90;;;;;;5044028;28;20080;-74
2022/07/26 03:56:49;;;;;;;10.40;2.10;;;17.30;99.90;;;;;;5048522;28;20136;-74
2022/07/26 03:59:17;;;;;;;17.30;2.00;;;17.70;99.90;;;;;;5044721;28;20052;-74
2022/07/26 04:01:45;;;;;;;6.97;1.65;;;17.90;99.90;;;;;;5050199;28;20045;-73
2022/07/26 04:04:14;;;;;;;7.80;1.98;;;18.10;99.90;;;;;;5047867;28;20053;-74
2022/07/26 04:06:41;;;;;;;5.75;1.23;;;18.00;99.90;;;;;;5046383;28;20045;-73
2022/07/26 04:09:09;;;;;;;8.27;1.70;;;17.90;99.90;;;;;;5052866;28;20475;-73
2022/07/26 04:11:36;;;;;;;6.70;1.60;;;18.10;99.90;;;;;;5033929;28;20053;-75
2022/07/26 04:14:04;;;;;;;4.53;1.15;;;17.90;99.90;;;;;;5049749;28;20045;-74
2022/07/26 04:16:31;;;;;;;5.57;1.23;;;17.90;99.90;;;;;;5047574;28;20049;-74
2022/07/26 04:18:58;;;;;;;6.00;1.30;;;18.00;99.90;;;;;;5048609;28;20098;-75
2022/07/26 04:21:25;;;;;;;6.85;1.35;;;18.20;99.90;;;;;;5049955;28;20092;-74
2022/07/26 04:23:53;;;;;;;3.58;1.20;;;18.10;99.90;;;;;;5047922;28;20106;-75
2022/07/26 04:26:20;;;;;;;4.25;1.30;;;18.10;99.90;;;;;;5052969;28;20049;-73
2022/07/26 04:28:47;;;;;;;6.20;1.42;;;18.10;99.90;;;;;;5046767;28;20124;-74
2022/07/26 04:31:16;;;;;;;7.15;1.52;;;18.00;99.90;;;;;;5047876;28;20449;-74
2022/07/26 04:33:43;;;;;;;7.32;1.45;;;17.90;99.90;;;;;;5047565;28;20053;-74
2022/07/26 04:36:10;;;;;;;8.40;1.65;;;17.90;99.90;;;;;;5050799;28;20057;-75
2022/07/26 04:38:37;;;;;;;6.57;1.20;;;18.00;99.90;;;;;;5063428;28;20072;-74
2022/07/26 04:41:03;;;;;;;4.72;1.20;;;18.10;99.90;;;;;;5038760;28;20053;-75
2022/07/26 04:43:31;;;;;;;2.17;1.00;;;18.00;99.90;;;;;;5030335;28;20095;-74
2022/07/26 04:45:59;;;;;;;3.95;1.23;;;17.80;99.90;;;;;;5038350;28;20064;-74
2022/07/26 04:48:27;;;;;;;4.60;1.25;;;17.70;99.90;;;;;;5047634;28;20061;-74
2022/07/26 04:50:54;;;;;;;6.22;1.23;;;17.60;99.90;;;;;;5032020;28;20115;-74
2022/07/26 04:53:21;;;;;;;7.57;1.30;;;17.50;99.90;;;;;;5039022;28;20102;-73
2022/07/26 04:55:48;;;;;;;4.40;1.00;;;17.40;99.90;;;;;;5047291;28;20095;-75
2022/07/26 04:58:15;;;;;;;6.38;1.17;;;17.30;99.90;;;;;;5030840;28;20457;-72
2022/07/26 05:00:42;;;;;;;10.13;1.50;;;17.40;99.90;;;;;;5045488;28;20060;-74
2022/07/26 05:03:09;;;;;;;5.97;1.38;;;17.40;99.90;;;;;;5046590;28;20079;-73
2022/07/26 05:05:37;;;;;;;3.20;0.98;;;17.40;99.90;;;;;;5045505;28;20044;-74
2022/07/26 05:08:04;;;;;;;7.60;1.30;;;17.40;99.90;;;;;;5046717;28;20041;-74
2022/07/26 05:10:34;;;;;;;5.07;1.20;;;17.30;99.90;;;;;;5046247;28;20058;-73
2022/07/26 05:13:02;;;;;;;3.73;1.33;;;17.40;99.90;;;;;;5049746;28;20113;-74
2022/07/26 05:15:29;;;;;;;3.63;1.33;;;17.60;99.90;;;;;;5049306;28;20049;-75
2022/07/26 05:18:00;;;;;;;9.32;1.50;;;17.80;99.90;;;;;;5045859;28;20053;-74
2022/07/26 05:20:27;;;;;;;8.07;1.45;;;17.80;99.90;;;;;;5048348;28;20051;-75
2022/07/26 05:22:56;;;;;;;4.03;1.02;;;17.80;99.90;;;;;;5045746;28;20037;-73
2022/07/26 05:25:23;;;;;;;5.28;0.95;;;17.80;99.90;;;;;;5042875;28;20061;-74
2022/07/26 05:27:50;;;;;;;3.90;1.13;;;17.60;99.90;;;;;;5059977;28;20099;-73
2022/07/26 05:30:16;;;;;;;3.53;1.10;;;17.60;99.90;;;;;;5044189;28;20493;-73
2022/07/26 05:32:43;;;;;;;4.07;1.10;;;17.60;99.90;;;;;;5047308;28;20048;-73
2022/07/26 05:35:10;;;;;;;4.57;0.93;;;17.30;99.90;;;;;;5044407;28;20128;-73
2022/07/26 05:37:38;;;;;;;1.80;0.68;;;17.20;99.90;;;;;;5049463;28;20049;-75
2022/07/26 05:40:07;;;;;;;7.68;0.98;;;17.10;99.90;;;;;;5050028;28;20064;-73
2022/07/26 05:42:34;;;;;;;3.95;1.27;;;17.00;99.90;;;;;;5052015;28;20099;-74
2022/07/26 05:45:01;;;;;;;6.05;1.15;;;17.00;99.90;;;;;;5044190;28;20053;-75
2022/07/26 05:47:28;;;;;;;3.38;1.10;;;17.00;99.90;;;;;;5045053;28;20041;-74
2022/07/26 05:49:55;;;;;;;3.75;1.00;;;17.10;99.90;;;;;;5045258;28;20052;-73
2022/07/26 05:52:22;;;;;;;5.53;1.13;;;17.10;99.90;;;;;;5050579;28;20074;-74
2022/07/26 05:54:49;;;;;;;4.30;1.30;;;17.20;99.90;;;;;;5045397;28;20041;-74
2022/07/26 05:57:18;;;;;;;4.82;1.10;;;17.20;99.90;;;;;;5043522;28;20049;-73
2022/07/26 05:59:45;;;;;;;4.00;1.00;;;17.30;99.90;;;;;;5048220;28;20106;-74
2022/07/26 06:02:11;;;;;;;4.18;1.55;;;17.40;99.90;;;;;;5043142;28;20056;-73
2022/07/26 06:04:38;;;;;;;2.40;0.95;;;17.40;99.90;;;;;;5046359;28;20041;-73
2022/07/26 06:07:05;;;;;;;7.55;1.60;;;17.50;99.90;;;;;;5046279;28;20046;-74
2022/07/26 06:09:32;;;;;;;5.15;1.13;;;17.60;99.90;;;;;;5042278;28;20503;-73
2022/07/26 06:11:59;;;;;;;3.97;1.40;;;17.80;99.90;;;;;;5043748;28;20061;-74
2022/07/26 06:14:27;;;;;;;5.45;1.25;;;17.90;99.90;;;;;;5045201;28;20132;-73
2022/07/26 06:16:55;;;;;;;3.13;1.35;;;17.90;99.90;;;;;;5046469;28;20052;-74
2022/07/26 06:19:22;;;;;;;5.70;1.30;;;17.90;99.90;;;;;;5045164;28;20053;-74
2022/07/26 06:21:49;;;;;;;6.47;1.23;;;17.90;99.90;;;;;;5047562;28;20057;-74
2022/07/26 06:24:16;;;;;;;5.57;1.30;;;17.90;99.90;;;;;;5044235;28;20033;-74
2022/07/26 06:26:43;;;;;;;3.38;1.50;;;17.90;99.90;;;;;;5041866;28;20513;-72
2022/07/26 06:29:10;;;;;;;5.05;1.70;;;17.80;99.90;;;;;;5041426;28;20509;-74
2022/07/26 06:31:38;;;;;;;6.80;1.90;;;17.70;99.90;;;;;;5043326;28;20124;-74
2022/07/26 06:34:05;;;;;;;4.22;1.92;;;17.60;99.90;;;;;;5042413;28;20049;-73
2022/07/26 06:36:32;;;;;;;6.43;1.95;;;17.50;99.90;;;;;;5036763;28;20195;-73
2022/07/26 06:38:59;;;;;;;4.82;1.60;;;17.50;99.90;;;;;;5046721;28;20103;-73
2022/07/26 06:41:26;;;;;;;6.63;1.30;;;17.50;99.90;;;;;;5052743;28;20098;-74
2022/07/26 06:43:53;;;;;;;9.25;1.80;;;17.60;99.90;;;;;;5051298;28;20052;-74
2022/07/26 06:46:20;;;;;;;9.60;1.63;;;17.80;99.90;;;;;;5051390;28;20053;-74
2022/07/26 06:48:48;;;;;;;4.35;1.33;;;17.90;99.90;;;;;;5050938;28;20473;-73
2022/07/26 06:51:16;;;;;;;7.28;1.08;;;18.10;99.90;;;;;;5050466;28;20111;-73
2022/07/26 06:53:43;;;;;;;4.07;1.00;;;18.30;99.90;;;;;;5050968;28;20124;-74
2022/07/26 06:56:12;;;;;;;2.53;0.90;;;18.40;99.90;;;;;;5052235;28;20060;-73
2022/07/26 06:58:39;;;;;;;6.70;1.40;;;18.50;99.90;;;;;;5051437;28;20044;-73
2022/07/26 07:01:06;;;;;;;6.10;1.20;;;18.60;99.90;;;;;;5052448;28;20072;-74
2022/07/26 07:03:32;;;;;;;3.15;0.80;;;18.60;99.90;;;;;;5050879;28;20095;-73
2022/07/26 07:06:01;;;;;;;6.65;1.27;;;18.60;99.90;;;;;;5050470;28;20053;-73
2022/07/26 07:08:28;;;;;;;5.75;1.55;;;18.50;99.90;;;;;;5054397;28;20083;-73
2022/07/26 07:10:55;;;;;;;6.57;1.30;;;18.40;99.90;;;;;;5055066;28;20053;-73
2022/07/26 07:13:22;;;;;;;5.55;1.00;;;18.40;99.90;;;;;;5054393;28;20053;-73
2022/07/26 07:15:49;;;;;;;8.05;1.30;;;18.40;99.90;;;;;;5055988;28;20049;-74
2022/07/26 07:18:16;;;;;;;4.72;0.93;;;18.60;99.90;;;;;;5055129;28;20053;-74
2022/07/26 07:20:43;;;;;;;6.72;1.27;;;18.90;99.90;;;;;;5055552;28;20052;-73
2022/07/26 07:23:11;;;;;;;4.38;1.13;;;19.00;99.90;;;;;;5055723;28;20056;-73
2022/07/26 07:25:38;;;;;;;5.88;1.50;;;19.20;99.90;;;;;;5052872;28;20052;-73
2022/07/26 07:28:05;;;;;;;4.78;1.52;;;19.30;99.90;;;;;;5055565;28;20569;-74
2022/07/26 07:30:32;;;;;;;5.03;1.73;;;19.40;99.90;;;;;;5054723;28;20045;-73
2022/07/26 07:32:59;;;;;;;6.40;1.40;;;19.60;99.90;;;;;;5053980;28;20049;-73
2022/07/26 07:35:26;;;;;;;6.10;1.30;;;19.90;99.90;;;;;;5055103;28;20053;-73
2022/07/26 07:37:52;;;;;;;5.75;1.55;;;20.20;99.90;;;;;;5054461;28;20045;-73
2022/07/26 07:40:22;;;;;;;5.53;1.20;;;20.30;99.90;;;;;;5054754;28;20057;-74
2022/07/26 07:42:49;;;;;;;6.68;1.38;;;20.40;99.90;;;;;;5054389;28;20088;-74
2022/07/26 07:45:16;;;;;;;6.20;1.67;;;20.10;99.90;;;;;;5057586;28;20057;-73
2022/07/26 07:47:42;;;;;;;8.80;2.33;;;20.00;99.90;;;;;;5079969;28;20059;-73
2022/07/26 07:50:10;;;;;;;9.15;2.33;;;19.70;99.90;;;;;;5062832;28;20485;-72
2022/07/26 07:52:36;;;;;;;8.13;2.20;;;19.60;99.90;;;;;;5056673;28;20451;-73
2022/07/26 07:55:04;;;;;;;5.03;1.65;;;19.60;99.90;;;;;;5072957;28;20106;-72
2022/07/26 07:57:34;;;;;;;6.80;1.60;;;19.60;99.90;;;;;;5073759;28;20049;-73
2022/07/26 08:00:01;;;;;;;8.13;1.70;;;19.60;99.90;;;;;;5073039;28;20106;-73
2022/07/26 08:02:28;;;;;;;9.10;1.80;;;19.60;99.90;;;;;;5062807;28;20499;-73
2022/07/26 08:04:55;;;;;;;6.25;1.25;;;19.60;99.90;;;;;;5054951;28;20049;-73
2022/07/26 08:07:22;;;;;;;3.88;1.00;;;19.60;99.90;;;;;;5069295;28;20497;-73
2022/07/26 08:09:48;;;;;;;4.93;1.77;;;19.60;99.90;;;;;;5070322;28;20061;-74
2022/07/26 08:12:16;;;;;;;7.05;1.70;;;19.70;99.90;;;;;;5054649;28;20052;-73
2022/07/26 08:14:44;;;;;;;3.78;1.35;;;19.90;99.90;;;;;;5054034;28;20047;-73
2022/07/26 08:17:11;;;;;;;4.82;1.40;;;20.10;99.90;;;;;;5054512;28;20049;-73
2022/07/26 08:19:38;;;;;;;8.90;1.60;;;20.40;99.90;;;;;;5062389;28;20049;-73
2022/07/26 08:22:07;;;;;;;4.78;1.20;;;20.60;99.90;;;;;;5089707;28;20045;-73
2022/07/26 08:24:34;;;;;;;3.25;1.00;;;20.80;99.90;;;;;;5073487;28;20049;-72
2022/07/26 08:27:01;;;;;;;6.57;1.50;;;21.10;99.90;;;;;;5053532;28;20078;-74
2022/07/26 08:29:28;;;;;;;11.15;1.40;;;21.30;99.90;;;;;;5053725;28;20405;-73
2022/07/26 08:31:56;;;;;;;6.50;1.45;;;21.60;99.90;;;;;;5054787;28;20049;-73
2022/07/26 08:34:23;;;;;;;3.85;1.33;;;21.90;99.90;;;;;;5053319;28;20045;-73
2022/07/26 08:36:50;;;;;;;4.80;1.73;;;21.90;99.90;;;;;;5053714;28;20053;-74
2022/07/26 08:39:17;;;;;;;6.78;1.80;;;21.80;99.90;;;;;;5054024;28;20551;-74
2022/07/26 08:41:44;;;;;;;9.80;2.28;;;21.70;99.90;;;;;;5053026;28;20485;-74
2022/07/26 08:44:12;;;;;;;7.03;1.58;;;21.30;99.90;;;;;;5052046;28;20052;-73
2022/07/26 08:46:40;;;;;;;7.70;1.83;;;21.20;99.90;;;;;;5053641;28;20513;-73
2022/07/26 08:49:09;;;;;;;5.35;1.50;;;21.20;99.90;;;;;;5052564;28;20448;-74
2022/07/26 08:51:39;;;;;;;6.63;1.98;;;21.30;99.90;;;;;;5053890;28;20124;-73
2022/07/26 08:54:06;;;;;;;5.38;1.70;;;21.50;99.90;;;;;;5052848;28;20045;-73
2022/07/26 08:56:35;;;;;;;8.48;2.08;;;21.50;99.90;;;;;;5051809;28;20103;-73
2022/07/26 08:59:11;;;;;;;11.10;2.08;;;21.70;99.90;;;;;;5053994;28;20052;-73
2022/07/26 09:01:53;;;;;;;8.30;2.53;;;21.80;99.90;;;;;;5053622;28;20470;-73
2022/07/26 09:04:23;;;;;;;7.05;2.15;;;21.50;99.90;;;;;;5053005;28;20049;-74
2022/07/26 09:07:02;;;;;;;8.18;1.90;;;21.20;99.90;;;;;;5052492;28;20106;-74
2022/07/26 09:09:30;;;;;;;5.47;2.03;;;21.00;99.90;;;;;;5053672;28;20049;-74
2022/07/26 09:11:57;;;;;;;7.82;2.15;;;20.90;99.90;;;;;;5052420;28;20056;-74
2022/07/26 09:14:36;;;;;;;9.60;2.60;;;20.80;99.90;;;;;;5052260;28;20053;-73
2022/07/26 09:17:04;;;;;;;9.38;2.00;;;20.80;99.90;;;;;;5053133;28;20048;-74
2022/07/26 09:19:35;;;;;;;9.67;3.03;;;20.80;99.90;;;;;;5060016;28;20105;-74
2022/07/26 09:22:10;;;;;;;9.80;2.43;;;20.80;99.90;;;;;;5073479;28;20090;-75
2022/07/26 09:24:40;;;;;;;8.00;3.30;;;20.70;99.90;;;;;;5069232;28;20322;-74
2022/07/26 09:27:10;;;;;;;12.25;2.60;;;20.60;99.90;;;;;;5052432;28;20088;-74
2022/07/26 09:29:44;;;;;;;8.80;2.35;;;20.50;99.90;;;;;;5026973;28;20209;-74
2022/07/26 09:32:18;;;;;;;10.32;2.63;;;20.60;99.90;;;;;;5024889;28;20074;-74
2022/07/26 09:34:48;;;;;;;7.45;2.35;;;20.70;99.90;;;;;;5052837;28;20057;-74
2022/07/26 09:37:16;;;;;;;10.10;2.70;;;21.00;99.90;;;;;;5052354;28;20044;-74
2022/07/26 09:39:57;;;;;;;9.90;2.70;;;21.20;99.90;;;;;;5051884;28;20052;-74
2022/07/26 09:42:24;;;;;;;9.55;2.30;;;21.10;99.70;;;;;;5052044;28;20555;-73
2022/07/26 09:44:51;;;;;;;7.80;1.92;;;21.10;99.90;;;;;;5051844;28;20448;-73
2022/07/26 09:47:19;;;;;;;8.25;2.25;;;21.00;99.80;;;;;;5051585;28;20125;-73
2022/07/26 09:49:47;;;;;;;10.93;2.60;;;21.00;99.60;;;;;;5053032;28;20049;-73
2022/07/26 09:52:16;;;;;;;10.80;2.25;;;20.90;99.70;;;;;;5052551;28;20061;-73
2022/07/26 09:54:45;;;;;;;11.68;2.35;;;21.00;99.60;;;;;;5050466;28;20053;-74
2022/07/26 09:57:14;;;;;;;8.73;2.20;;;21.00;99.40;;;;;;5052630;28;20060;-73
2022/07/26 09:59:42;;;;;;;7.53;2.30;;;21.20;99.40;;;;;;5052240;28;20110;-74
2022/07/26 10:02:11;;;;;;;8.75;2.40;;;21.50;99.30;;;;;;5051383;28;20068;-74
2022/07/26 10:04:38;;;;;;;7.30;2.28;;;21.80;99.20;;;;;;5050237;28;20487;-74
2022/07/26 10:07:07;;;;;;;7.13;1.63;;;22.10;98.30;;;;;;5046400;28;20064;-73
2022/07/26 10:09:42;;;;;;;4.18;1.48;;;22.80;97.90;;;;;;5030752;28;20065;-73
2022/07/26 10:12:14;;;;;;;6.60;1.75;;;23.30;97.40;;;;;;5038568;28;20071;-73
2022/07/26 10:14:44;;;;;;;9.13;2.30;;;23.40;96.30;;;;;;5033097;28;20103;-73
2022/07/26 10:17:44;;;;;;;6.03;1.92;;;23.60;95.70;;;;;;5031587;28;20064;-74
2022/07/26 10:20:38;;;;;;;;;;;24.00;94.10;;;;;;5031083;28;20049;-74
2022/07/26 10:23:39;;;;;;;6.00;1.50;;;24.30;92.70;;;;;;5031832;28;19921;-74
2022/07/26 10:26:08;;;;;;;8.80;2.17;;;24.80;91.70;;;;;;5033934;28;20133;-76
2022/07/26 10:28:36;;;;;;;6.00;1.80;;;25.00;92.90;;;;;;5035460;28;20057;-74
2022/07/26 10:31:31;;;;;;;9.00;1.77;;;25.10;92.30;;;;;;5060267;28;20103;-74
2022/07/26 10:34:00;;;;;;;4.00;1.50;;;25.60;90.80;;;;;;5044638;28;20497;-75
2022/07/26 10:36:31;;;;;;;5.23;1.80;;;25.70;91.10;;;;;;5036009;28;20049;-76
2022/07/26 10:39:09;;;;;;;4.72;1.73;;;25.90;91.40;;;;;;5032615;28;20057;-76
2022/07/26 10:41:39;;;;;;;5.07;1.80;;;25.70;89.80;;;;;;5043425;28;20049;-72
2022/07/26 10:44:26;;;;;;;5.55;1.80;;;25.30;90.40;;;;;;5033514;28;20472;-74
2022/07/26 10:47:01;;;;;;;5.70;1.88;;;25.60;89.80;;;;;;5048508;28;20098;-75
2022/07/26 10:49:34;;;;;;;7.00;1.80;;;26.30;89.50;;;;;;5038103;28;20049;-74
2022/07/26 10:52:16;;;;;;;5.07;1.50;;;27.00;88.40;;;;;;5040468;28;20045;-75
2022/07/26 10:55:11;;;;;;;7.88;1.80;;;27.20;85.30;;;;;;5043502;28;20050;-74
2022/07/26 10:57:39;;;;;;;7.30;2.33;;;28.20;84.50;;;;;;4994086;28;20048;-74
2022/07/26 11:00:12;;;;;;;6.00;1.63;;;28.60;84.50;;;;;;5050581;28;20497;-75
2022/07/26 11:02:42;;;;;;;4.30;1.00;;;29.10;80.50;;;;;;5035746;28;20061;-74
2022/07/26 11:05:14;;;;;;;4.82;1.17;;;29.30;81.30;;;;;;5036272;28;20049;-75
2022/07/26 11:08:08;;;;;;;5.32;1.23;;;29.00;80.90;;;;;;5054129;28;20045;-74
2022/07/26 11:10:38;;;;;;;9.32;1.30;;;28.80;78.90;;;;;;5049073;28;20064;-74
2022/07/26 11:13:11;;;;;;;5.82;1.40;;;28.70;78.20;;;;;;5038900;28;20508;-74
2022/07/26 11:15:40;;;;;;;4.97;1.35;;;28.80;76.50;;;;;;5051671;28;20489;-74
2022/07/26 11:18:09;;;;;;;6.90;1.20;;;28.90;78.20;;;;;;5069751;28;20512;-75
2022/07/26 11:20:36;;;;;;;3.30;1.13;;;29.10;77.40;;;;;;5068710;28;20574;-74
2022/07/26 11:23:04;;;;;;;3.20;0.95;;;29.10;76.30;;;;;;5047061;28;20099;-73
2022/07/26 11:25:31;;;;;;;2.85;1.00;;;29.20;76.00;;;;;;5031871;28;20468;-74
2022/07/26 11:28:04;;;;;;;6.40;1.30;;;29.50;75.70;;;;;;5039447;28;20501;-75
2022/07/26 11:30:31;;;;;;;3.08;1.20;;;29.90;73.90;;;;;;5038318;28;20099;-74
2022/07/26 11:32:58;;;;;;;5.38;1.10;;;29.20;75.50;;;;;;5053047;28;20444;-75
2022/07/26 11:35:26;;;;;;;4.38;1.15;;;29.20;75.60;;;;;;5047338;28;20452;-75
2022/07/26 11:37:54;;;;;;;6.65;0.90;;;28.90;75.10;;;;;;5034108;28;20199;-76
2022/07/26 11:40:42;;;;;;;5.80;1.23;;;28.40;75.40;;;;;;5042941;28;20096;-75
2022/07/26 11:43:11;;;;;;;5.63;1.35;;;27.80;73.70;;;;;;5036905;28;20045;-75
2022/07/26 11:45:38;;;;;;;4.70;0.98;;;27.40;75.60;;;;;;5037172;28;20049;-75
2022/07/26 11:48:06;;;;;;;4.32;1.10;;;27.10;76.20;;;;;;5039256;28;20493;-74
2022/07/26 11:50:33;;;;;;;3.28;1.20;;;26.70;76.20;;;;;;5034663;28;20059;-74
2022/07/26 11:52:59;;;;;;;6.93;1.70;;;27.00;76.40;;;;;;5063664;28;20053;-73
2022/07/26 11:55:27;;;;;;;6.43;1.20;;;27.10;75.70;;;;;;5054469;28;20460;-75
2022/07/26 11:57:55;;;;;;;7.25;1.48;;;27.10;75.30;;;;;;5053866;28;20056;-73
2022/07/26 12:00:23;;;;;;;6.10;1.20;;;27.10;74.80;;;;;;5052657;28;20095;-74
2022/07/26 12:02:50;;;;;;;5.43;1.40;;;26.80;75.40;;;;;;5053811;28;20140;-74
2022/07/26 12:05:19;;;;;;;4.88;1.10;;;26.70;74.80;;;;;;5054955;28;20049;-74
2022/07/26 12:07:57;;;;;;;8.10;1.40;;;26.80;75.10;;;;;;5052661;28;20107;-74
2022/07/26 12:10:24;;;;;;;5.07;1.45;;;27.30;74.50;;;;;;5053642;28;20420;-75
2022/07/26 12:13:07;;;;;;;4.03;1.13;;;27.10;73.90;;;;;;5054372;28;20057;-76
2022/07/26 12:15:45;;;;;;;4.32;0.90;;;27.20;73.00;;;;;;5052642;28;20052;-74
2022/07/26 12:18:22;;;;;;;7.03;1.50;;;27.10;73.00;;;;;;5039756;28;20080;-74
2022/07/26 12:20:57;;;;;;;3.63;1.17;;;27.00;74.60;;;;;;5021671;28;20088;-75
2022/07/26 12:23:24;;;;;;;5.35;1.30;;;26.90;76.10;;;;;;5053501;28;20071;-75
2022/07/26 12:25:51;;;;;;;5.13;1.38;;;26.60;76.60;;;;;;5053066;28;20053;-74
2022/07/26 12:28:39;;;;;;;4.60;1.30;;;26.20;77.00;;;;;;5052450;28;20056;-74
2022/07/26 12:31:22;;;;;;;4.53;1.30;;;25.90;77.50;;;;;;5051116;28;20067;-74
2022/07/26 12:33:49;;;;;;;5.63;1.55;;;25.60;77.90;;;;;;5052892;28;20053;-74
2022/07/26 12:36:20;;;;;;;8.05;1.35;;;25.40;78.50;;;;;;5052207;28;20049;-73
2022/07/26 12:38:47;;;;;;;4.53;1.00;;;25.40;78.50;;;;;;5052896;28;20501;-74
2022/07/26 12:41:32;;;;;;;4.22;1.38;;;25.40;77.80;;;;;;5054158;28;20052;-74
2022/07/26 12:44:00;;;;;;;6.25;1.15;;;25.50;77.00;;;;;;5054078;28;20119;-74
2022/07/26 12:46:31;;;;;;;5.50;1.40;;;25.40;77.80;;;;;;5052699;28;20041;-74
2022/07/26 12:48:58;;;;;;;3.05;1.05;;;25.50;77.50;;;;;;5051966;28;20103;-74
2022/07/26 12:51:25;;;;;;;3.25;1.13;;;25.60;77.90;;;;;;5052580;28;20052;-73
2022/07/26 12:53:52;;;;;;;4.30;1.30;;;25.60;77.80;;;;;;5052065;28;20053;-74